Time;durP1;ratioP1;P1;durP2;ratioP2;P2;SDS_P1;SDS_P2;PMS_P1;PMS_P2;Temp;Humidity;BMP_temperature;BMP_pressure;BME280_temperature;BME280_humidity;BME280_pressure;Samples;Min_cycle;Max_cycle;Signal;HPM_P1;HPM_P2
2022/06/15 00:01:00;;;;;;;4.55;2.15;;;15.20;93.60;;;;;;5094298;28;20024;-84
2022/06/15 00:03:29;;;;;;;3.45;2.75;;;15.10;93.40;;;;;;5110949;28;20032;-84
2022/06/15 00:06:17;;;;;;;3.33;2.42;;;15.20;93.60;;;;;;5094727;28;20016;-84
2022/06/15 00:08:45;;;;;;;4.75;2.47;;;15.20;93.50;;;;;;5100808;28;20020;-83
2022/06/15 00:11:15;;;;;;;4.35;2.20;;;15.10;93.40;;;;;;5094719;28;20127;-84
2022/06/15 00:13:41;;;;;;;4.30;2.55;;;15.10;93.30;;;;;;5085696;28;20120;-85
2022/06/15 00:16:07;;;;;;;4.78;2.50;;;15.00;93.40;;;;;;5094198;28;20062;-84
2022/06/15 00:18:35;;;;;;;2.65;2.22;;;15.00;93.60;;;;;;5095758;28;20016;-83
2022/06/15 00:21:01;;;;;;;3.38;2.58;;;15.00;93.50;;;;;;5076681;28;20482;-85
2022/06/15 00:23:28;;;;;;;5.13;2.53;;;14.90;93.50;;;;;;5094872;28;20421;-84
2022/06/15 00:25:54;;;;;;;;;;;14.90;93.40;;;;;;5077082;28;20031;-85
2022/06/15 00:28:21;;;;;;;3.90;2.55;;;14.90;93.30;;;;;;5094379;28;19987;-84
2022/06/15 00:30:51;;;;;;;4.22;2.88;;;14.80;93.50;;;;;;5088439;28;20066;-85
2022/06/15 00:33:21;;;;;;;6.78;2.78;;;14.80;93.50;;;;;;5094411;28;20027;-86
2022/06/15 00:35:57;;;;;;;3.55;2.78;;;14.80;93.70;;;;;;5095619;28;20043;-86
2022/06/15 00:38:33;;;;;;;3.30;2.63;;;14.70;93.70;;;;;;5097744;28;20012;-85
2022/06/15 00:41:00;;;;;;;4.35;2.78;;;14.70;93.90;;;;;;5089373;28;20027;-82
2022/06/15 00:43:39;;;;;;;6.03;3.00;;;14.70;93.80;;;;;;5077048;28;20158;-84
2022/06/15 00:46:30;;;;;;;3.92;2.65;;;14.70;93.70;;;;;;5082214;28;20099;-85
2022/06/15 00:49:23;;;;;;;6.15;2.60;;;14.60;93.80;;;;;;5094969;28;20020;-86
2022/06/15 00:51:53;;;;;;;3.97;2.95;;;14.60;93.90;;;;;;5094390;28;20028;-86
2022/06/15 00:54:20;;;;;;;3.60;2.88;;;14.60;93.90;;;;;;5094311;28;20016;-85
2022/06/15 00:56:46;;;;;;;4.13;2.83;;;14.60;93.90;;;;;;5088655;28;20035;-87
2022/06/15 00:59:33;;;;;;;4.95;2.60;;;14.60;93.90;;;;;;5094625;28;20395;-86
2022/06/15 01:01:59;;;;;;;4.55;2.60;;;14.60;93.80;;;;;;5094264;28;20100;-85
2022/06/15 01:04:37;;;;;;;3.25;2.50;;;14.50;93.70;;;;;;5093390;28;20111;-85
2022/06/15 01:07:12;;;;;;;4.95;2.60;;;14.50;93.60;;;;;;5077303;28;20477;-84
2022/06/15 01:09:48;;;;;;;4.07;2.70;;;14.40;93.50;;;;;;5103118;28;20058;-84
2022/06/15 01:12:59;;;;;;;4.78;2.55;;;14.40;93.60;;;;;;5079599;28;20032;-87
2022/06/15 01:15:49;;;;;;;5.13;2.45;;;14.40;93.70;;;;;;5081588;28;20028;-85
2022/06/15 01:18:28;;;;;;;6.90;2.88;;;14.40;93.70;;;;;;5095493;28;20020;-85
2022/06/15 01:21:19;;;;;;;5.40;2.83;;;14.40;93.90;;;;;;5083625;28;20584;-85
2022/06/15 01:24:11;;;;;;;4.80;2.60;;;14.40;93.90;;;;;;5105777;28;20095;-85
2022/06/15 01:27:09;;;;;;;3.85;2.55;;;14.40;93.90;;;;;;5083300;28;20040;-86
2022/06/15 01:29:55;;;;;;;7.43;2.58;;;14.40;93.60;;;;;;5079613;28;20024;-85
2022/06/15 01:32:56;;;;;;;6.57;2.42;;;14.40;93.60;;;;;;5075117;28;20043;-86
2022/06/15 01:36:15;;;;;;;6.70;3.30;;;14.40;93.50;;;;;;5093613;28;20557;-86
2022/06/15 01:38:53;;;;;;;3.83;2.53;;;14.40;93.60;;;;;;5042929;28;20029;-86
2022/06/15 01:41:28;;;;;;;3.25;2.20;;;14.40;93.50;;;;;;5050982;28;20025;-86
2022/06/15 01:44:03;;;;;;;11.38;2.53;;;14.40;93.40;;;;;;5097342;28;20089;-86
2022/06/15 01:46:29;;;;;;;5.75;2.65;;;14.50;93.40;;;;;;5080141;28;20023;-86
2022/06/15 01:48:56;;;;;;;4.30;2.22;;;14.60;93.00;;;;;;5089326;28;20050;-86
2022/06/15 01:51:28;;;;;;;3.13;2.33;;;14.60;92.80;;;;;;5092957;28;20024;-85
2022/06/15 01:54:08;;;;;;;5.32;2.25;;;14.60;92.70;;;;;;5092794;28;20040;-85
2022/06/15 01:56:39;;;;;;;8.88;3.00;;;14.70;92.50;;;;;;5091310;28;20020;-84
2022/06/15 01:59:33;;;;;;;3.00;2.20;;;14.70;92.10;;;;;;5108443;28;20020;-84
2022/06/15 02:02:18;;;;;;;5.60;2.85;;;14.80;91.90;;;;;;5080594;28;20045;-84
2022/06/15 02:05:12;;;;;;;3.92;2.65;;;14.80;91.60;;;;;;5074339;28;20031;-84
2022/06/15 02:07:54;;;;;;;3.95;2.70;;;14.80;91.50;;;;;;5074475;28;20028;-85
2022/06/15 02:10:31;;;;;;;3.47;2.10;;;14.80;91.50;;;;;;5078870;28;20027;-86
2022/06/15 02:13:01;;;;;;;;;;;14.80;91.30;;;;;;5093214;28;20501;-85
2022/06/15 02:15:29;;;;;;;3.80;2.55;;;14.90;91.40;;;;;;5091958;28;19912;-84
2022/06/15 02:17:58;;;;;;;2.60;2.30;;;14.90;91.30;;;;;;5099181;28;20016;-85
2022/06/15 02:20:33;;;;;;;7.10;2.10;;;15.00;91.10;;;;;;5102662;28;20012;-83
2022/06/15 02:23:03;;;;;;;6.30;2.50;;;15.00;90.90;;;;;;5096559;28;20023;-85
2022/06/15 02:25:33;;;;;;;3.00;2.28;;;15.10;90.60;;;;;;5092680;28;20016;-85
2022/06/15 02:28:01;;;;;;;3.85;2.20;;;15.10;90.50;;;;;;5092281;28;20098;-84
2022/06/15 02:30:29;;;;;;;5.15;2.17;;;15.10;90.30;;;;;;5074395;28;20069;-84
2022/06/15 02:32:55;;;;;;;3.42;2.65;;;15.10;90.30;;;;;;5106632;28;20115;-85
2022/06/15 02:35:21;;;;;;;3.40;2.17;;;15.10;90.20;;;;;;5092033;28;20150;-84
2022/06/15 02:37:49;;;;;;;2.28;1.88;;;15.10;90.00;;;;;;5092704;28;20127;-83
2022/06/15 02:40:21;;;;;;;5.30;2.10;;;15.10;90.00;;;;;;5092279;28;20500;-84
2022/06/15 02:42:48;;;;;;;3.17;2.28;;;15.10;89.50;;;;;;5074269;28;20050;-84
2022/06/15 02:45:19;;;;;;;3.20;2.25;;;15.00;89.30;;;;;;5092150;28;20020;-83
2022/06/15 02:47:46;;;;;;;9.57;2.65;;;15.00;90.00;;;;;;5091216;28;20102;-85
2022/06/15 02:50:17;;;;;;;4.23;1.93;;;15.00;90.00;;;;;;5080515;28;20038;-84
2022/06/15 02:52:50;;;;;;;5.40;2.08;;;15.10;89.50;;;;;;5071359;28;20079;-83
2022/06/15 02:55:19;;;;;;;5.90;2.00;;;15.20;89.10;;;;;;5066506;28;20016;-85
2022/06/15 02:57:49;;;;;;;5.68;2.13;;;15.20;88.90;;;;;;5090147;28;20055;-84
2022/06/15 03:00:17;;;;;;;5.20;2.63;;;15.30;88.60;;;;;;5095278;28;20020;-85
2022/06/15 03:02:43;;;;;;;5.15;2.25;;;15.40;88.40;;;;;;5097745;28;20039;-84
2022/06/15 03:05:09;;;;;;;3.50;1.98;;;15.40;87.00;;;;;;5099113;28;20024;-84
2022/06/15 03:07:35;;;;;;;2.03;1.50;;;15.30;87.30;;;;;;5098442;28;20027;-84
2022/06/15 03:10:01;;;;;;;4.90;2.17;;;15.50;87.30;;;;;;5082872;28;20016;-84
2022/06/15 03:12:26;;;;;;;5.63;2.38;;;15.70;86.70;;;;;;5078708;28;20497;-84
2022/06/15 03:14:52;;;;;;;3.22;2.20;;;15.90;85.60;;;;;;5115361;28;20016;-84
2022/06/15 03:17:18;;;;;;;6.15;2.55;;;15.90;85.00;;;;;;5099013;28;20032;-86
2022/06/15 03:19:44;;;;;;;3.20;2.20;;;15.70;85.50;;;;;;5095089;28;20103;-85
2022/06/15 03:22:10;;;;;;;10.13;2.75;;;15.80;85.70;;;;;;5078512;28;20036;-85
2022/06/15 03:24:35;;;;;;;4.80;2.10;;;15.90;85.90;;;;;;5101988;28;20042;-86
2022/06/15 03:27:01;;;;;;;4.53;2.15;;;15.80;85.10;;;;;;5086399;28;20023;-84
2022/06/15 03:29:27;;;;;;;6.97;2.60;;;15.80;85.80;;;;;;5096355;28;20020;-85
2022/06/15 03:31:53;;;;;;;4.28;2.45;;;15.80;86.10;;;;;;5095974;28;20500;-83
2022/06/15 03:34:19;;;;;;;3.53;2.25;;;15.90;86.00;;;;;;5096132;28;20047;-85
2022/06/15 03:36:44;;;;;;;3.90;2.30;;;15.90;85.20;;;;;;5100679;28;20111;-87
2022/06/15 03:39:10;;;;;;;6.70;2.53;;;15.80;84.90;;;;;;5095896;28;20066;-85
2022/06/15 03:41:36;;;;;;;3.60;2.45;;;15.70;85.60;;;;;;5078835;28;20039;-85
2022/06/15 03:44:02;;;;;;;3.45;2.58;;;15.70;86.30;;;;;;5078084;28;20020;-87
2022/06/15 03:46:29;;;;;;;3.55;2.15;;;15.80;85.30;;;;;;5096438;28;20028;-85
2022/06/15 03:48:55;;;;;;;6.00;2.40;;;15.80;85.20;;;;;;5097966;28;20029;-86
2022/06/15 03:51:21;;;;;;;2.60;2.28;;;15.80;85.30;;;;;;5099604;28;20068;-85
2022/06/15 03:53:46;;;;;;;7.70;2.42;;;15.90;85.40;;;;;;5108916;28;20053;-83
2022/06/15 03:56:12;;;;;;;3.78;2.10;;;16.00;85.00;;;;;;5101434;28;20024;-85
2022/06/15 03:58:38;;;;;;;4.75;2.15;;;15.80;84.40;;;;;;5095783;28;20020;-86
2022/06/15 04:01:04;;;;;;;6.03;2.13;;;15.70;84.90;;;;;;5095801;28;20039;-86
2022/06/15 04:03:30;;;;;;;4.32;2.42;;;15.80;85.70;;;;;;5095475;28;20020;-85
2022/06/15 04:05:57;;;;;;;4.88;1.90;;;15.80;84.70;;;;;;5095223;28;20032;-85
2022/06/15 04:08:35;;;;;;;8.23;2.40;;;15.80;84.60;;;;;;5095269;28;20035;-86
2022/06/15 04:13:58;;;;;;;3.10;1.92;;;15.50;85.60;;;;;;5099999;28;20027;-85
2022/06/15 04:16:24;;;;;;;3.92;1.63;;;15.60;85.00;;;;;;5080365;28;20028;-87
2022/06/15 04:18:49;;;;;;;4.75;2.08;;;15.60;84.60;;;;;;5077349;28;20099;-86
2022/06/15 04:21:15;;;;;;;4.50;2.15;;;15.70;85.00;;;;;;5095492;28;20023;-88
2022/06/15 04:23:41;;;;;;;4.28;2.08;;;15.90;84.60;;;;;;5095842;28;20051;-86
2022/06/15 04:26:07;;;;;;;3.47;1.80;;;16.10;84.40;;;;;;5096988;28;20027;-86
2022/06/15 04:28:36;;;;;;;4.05;2.25;;;16.20;83.10;;;;;;5077602;28;20021;-85
2022/06/15 04:31:02;;;;;;;1.92;1.42;;;16.20;83.50;;;;;;5095816;28;20040;-87
2022/06/15 04:33:28;;;;;;;5.32;1.92;;;16.30;82.20;;;;;;5095742;28;20393;-86
2022/06/15 04:35:54;;;;;;;2.75;1.60;;;16.40;81.90;;;;;;5088259;28;20028;-89
2022/06/15 04:38:20;;;;;;;1.85;1.20;;;16.30;81.30;;;;;;5088916;28;20024;-86
2022/06/15 04:41:09;;;;;;;4.63;1.92;;;16.30;81.10;;;;;;5076305;28;20024;-86
2022/06/15 04:43:35;;;;;;;2.65;1.80;;;16.10;81.20;;;;;;5089056;28;20039;-86
2022/06/15 04:46:01;;;;;;;3.67;1.63;;;15.90;82.70;;;;;;5094825;28;20028;-84
2022/06/15 04:48:27;;;;;;;2.85;1.50;;;16.00;83.80;;;;;;5094817;28;20013;-87
2022/06/15 04:50:55;;;;;;;4.70;2.03;;;16.00;82.40;;;;;;5103494;28;20414;-86
2022/06/15 04:53:21;;;;;;;6.88;1.90;;;16.10;82.20;;;;;;5092583;28;20036;-86
2022/06/15 04:55:46;;;;;;;4.15;1.55;;;16.20;81.70;;;;;;5094299;28;20028;-84
2022/06/15 04:58:12;;;;;;;3.88;1.52;;;16.50;81.30;;;;;;5093610;28;20065;-85
2022/06/15 05:00:43;;;;;;;4.97;1.73;;;16.80;81.00;;;;;;5098682;28;20024;-84
2022/06/15 05:03:09;;;;;;;4.70;1.70;;;17.30;80.50;;;;;;5100803;28;20027;-85
2022/06/15 05:05:35;;;;;;;2.35;1.33;;;17.50;78.60;;;;;;5097678;28;20020;-84
2022/06/15 05:08:01;;;;;;;6.40;1.88;;;17.60;76.60;;;;;;5084206;28;20028;-83
2022/06/15 05:10:27;;;;;;;6.72;1.98;;;17.50;78.40;;;;;;5103375;28;20024;-86
2022/06/15 05:12:53;;;;;;;2.65;1.38;;;17.60;76.40;;;;;;5085744;28;20512;-83
2022/06/15 05:15:20;;;;;;;2.40;1.50;;;17.80;75.30;;;;;;5077997;28;20052;-84
2022/06/15 05:17:50;;;;;;;3.60;1.50;;;17.90;74.10;;;;;;5065936;28;20077;-86
2022/06/15 05:20:17;;;;;;;4.63;2.10;;;18.40;73.80;;;;;;5083094;28;20019;-87
2022/06/15 05:22:49;;;;;;;5.03;1.63;;;18.60;72.10;;;;;;5075480;28;20106;-87
2022/06/15 05:25:15;;;;;;;6.15;1.95;;;19.10;71.30;;;;;;5090714;28;20469;-87
2022/06/15 05:27:40;;;;;;;3.47;1.52;;;19.50;70.00;;;;;;5077471;28;20020;-85
2022/06/15 05:30:07;;;;;;;1.98;1.45;;;19.80;67.70;;;;;;5074042;28;20445;-85
2022/06/15 05:32:34;;;;;;;3.85;1.55;;;19.80;67.00;;;;;;5076874;28;20096;-85
2022/06/15 05:35:00;;;;;;;4.47;1.77;;;19.30;67.90;;;;;;5059039;28;22895;-84
2022/06/15 05:37:28;;;;;;;3.38;1.85;;;18.90;68.50;;;;;;5078029;28;20021;-85
2022/06/15 05:39:54;;;;;;;5.05;1.60;;;18.60;71.20;;;;;;5084508;28;20502;-85
2022/06/15 05:42:20;;;;;;;4.28;2.03;;;18.50;70.00;;;;;;5079951;28;20038;-85
2022/06/15 05:47:11;;;;;;;1.92;1.27;;;19.80;68.30;;;;;;5081682;28;20102;-85
2022/06/15 05:49:37;;;;;;;3.33;1.58;;;20.60;64.10;;;;;;5096862;28;20042;-86
2022/06/15 05:52:04;;;;;;;2.92;1.23;;;20.90;62.00;;;;;;5085556;28;20035;-90
2022/06/15 05:54:29;;;;;;;7.28;1.40;;;20.00;62.80;;;;;;5075333;28;20051;-86
2022/06/15 05:56:55;;;;;;;3.35;1.23;;;19.60;64.60;;;;;;5095970;28;20043;-88
2022/06/15 05:59:21;;;;;;;3.00;1.80;;;19.50;67.00;;;;;;5094180;28;20040;-83
2022/06/15 06:01:47;;;;;;;4.05;2.25;;;19.70;66.20;;;;;;5078871;28;20052;-90
2022/06/15 06:04:15;;;;;;;4.75;1.40;;;19.60;66.60;;;;;;5092731;28;20020;-84
2022/06/15 06:06:42;;;;;;;2.85;1.20;;;19.20;66.40;;;;;;5097087;28;20024;-83
2022/06/15 06:09:10;;;;;;;3.13;1.42;;;18.70;68.40;;;;;;5079282;28;20030;-84
2022/06/15 06:11:36;;;;;;;3.80;1.00;;;18.50;69.50;;;;;;5098238;28;20024;-83
2022/06/15 06:14:03;;;;;;;6.47;1.20;;;18.20;69.30;;;;;;5096794;28;20058;-83
2022/06/15 06:16:28;;;;;;;6.70;1.60;;;17.90;69.90;;;;;;5097025;28;20107;-83
2022/06/15 06:18:54;;;;;;;4.05;1.65;;;18.30;70.20;;;;;;5096724;28;20054;-82
2022/06/15 06:21:20;;;;;;;3.90;1.38;;;19.00;68.20;;;;;;5097740;28;20491;-83
2022/06/15 06:23:47;;;;;;;5.60;1.70;;;19.30;66.60;;;;;;5097014;28;20111;-84
2022/06/15 06:26:23;;;;;;;4.72;1.73;;;19.60;66.30;;;;;;5091688;28;20023;-85
2022/06/15 06:28:50;;;;;;;5.47;1.55;;;19.60;65.10;;;;;;5112154;28;20024;-84
2022/06/15 06:31:19;;;;;;;6.55;1.60;;;19.20;65.90;;;;;;5078280;28;20042;-84
2022/06/15 06:33:46;;;;;;;2.90;1.42;;;19.30;66.70;;;;;;5096112;28;20113;-84
2022/06/15 06:36:32;;;;;;;1.58;1.15;;;21.20;63.60;;;;;;5078098;28;20031;-86
2022/06/15 06:39:01;;;;;;;2.10;1.10;;;24.40;58.70;;;;;;5096144;28;20032;-84
2022/06/15 06:41:31;;;;;;;2.35;1.00;;;26.20;51.60;;;;;;5096449;28;20031;-84
2022/06/15 06:43:59;;;;;;;4.78;1.30;;;;;;;;;;5095527;28;20078;-83
2022/06/15 06:46:25;;;;;;;5.70;2.20;;;28.00;47.30;;;;;;5071314;28;20112;-83
2022/06/15 06:48:51;;;;;;;3.17;1.37;;;30.30;41.90;;;;;;5092533;28;20440;-84
2022/06/15 06:51:18;;;;;;;5.30;1.30;;;29.90;40.90;;;;;;5080243;28;20055;-85
2022/06/15 06:53:45;;;;;;;2.83;0.93;;;29.50;41.30;;;;;;5098529;28;20043;-84
2022/06/15 06:56:12;;;;;;;2.95;0.90;;;29.90;40.20;;;;;;5099392;28;20032;-83
2022/06/15 06:58:38;;;;;;;;;;;29.40;39.80;;;;;;5078838;28;20093;-85
2022/06/15 07:01:04;;;;;;;3.38;0.93;;;28.90;42.90;;;;;;5079053;28;19914;-83
2022/06/15 07:03:30;;;;;;;5.05;1.58;;;28.70;40.90;;;;;;5084639;28;20082;-84
2022/06/15 07:06:05;;;;;;;7.30;1.35;;;27.70;42.90;;;;;;5097429;28;20028;-83
2022/06/15 07:08:32;;;;;;;2.75;1.20;;;27.10;42.60;;;;;;5096126;28;20636;-84
2022/06/15 07:10:58;;;;;;;4.55;1.35;;;25.20;45.40;;;;;;5078056;28;20028;-85
2022/06/15 07:13:25;;;;;;;4.30;1.80;;;23.80;48.00;;;;;;5078705;28;20054;-85
2022/06/15 07:15:51;;;;;;;1.88;1.05;;;23.00;50.90;;;;;;5099008;28;20019;-85
2022/06/15 07:18:18;;;;;;;4.72;1.25;;;24.20;50.00;;;;;;5099776;28;20040;-84
2022/06/15 07:20:44;;;;;;;2.55;1.10;;;26.20;46.70;;;;;;5081274;28;20046;-84
2022/06/15 07:23:09;;;;;;;2.22;1.10;;;26.50;43.60;;;;;;5079725;28;20028;-84
2022/06/15 07:25:35;;;;;;;2.13;1.00;;;25.20;44.80;;;;;;5096070;28;20085;-84
2022/06/15 07:28:03;;;;;;;3.50;1.20;;;23.60;47.40;;;;;;5111963;28;20432;-84
2022/06/15 07:30:29;;;;;;;;;;;23.30;50.80;;;;;;5096500;28;20044;-85
2022/06/15 07:32:55;;;;;;;4.83;1.17;;;24.60;49.80;;;;;;5096375;28;19919;-84
2022/06/15 07:35:28;;;;;;;4.38;1.15;;;24.80;46.80;;;;;;5095467;28;20099;-85
2022/06/15 07:37:54;;;;;;;2.28;1.50;;;23.80;47.90;;;;;;5096093;28;20101;-85
2022/06/15 07:40:22;;;;;;;4.50;1.77;;;22.90;50.50;;;;;;5094901;28;20131;-86
2022/06/15 07:42:49;;;;;;;4.30;1.50;;;22.40;51.50;;;;;;5076929;28;20022;-84
2022/06/15 07:45:18;;;;;;;3.95;1.63;;;24.30;51.40;;;;;;5078294;28;20031;-84
2022/06/15 07:50:29;;;;;;;5.05;1.17;;;28.40;44.40;;;;;;5102062;28;20067;-84
2022/06/15 07:52:55;;;;;;;3.80;0.90;;;30.30;40.20;;;;;;5083902;28;20620;-84
2022/06/15 07:55:30;;;;;;;2.65;1.10;;;31.00;38.90;;;;;;5091132;28;20024;-83
2022/06/15 07:57:56;;;;;;;3.03;1.30;;;31.50;38.10;;;;;;5103011;28;20024;-84
2022/06/15 08:00:23;;;;;;;3.07;1.00;;;32.20;38.00;;;;;;5100509;28;20088;-84
2022/06/15 08:02:49;;;;;;;2.50;1.05;;;;;;;;;;5081139;28;20020;-84
2022/06/15 08:05:16;;;;;;;2.17;1.00;;;32.00;37.30;;;;;;5099449;28;20066;-84
2022/06/15 08:07:44;;;;;;;2.13;0.80;;;32.30;36.20;;;;;;5098629;28;20102;-85
2022/06/15 08:10:13;;;;;;;5.38;1.25;;;31.20;36.70;;;;;;5098875;28;20036;-84
2022/06/15 08:12:40;;;;;;;1.92;0.70;;;29.60;37.40;;;;;;5081419;28;20028;-85
2022/06/15 08:15:06;;;;;;;;;;;27.90;39.30;;;;;;5082154;28;20012;-84
2022/06/15 08:17:43;;;;;;;3.92;1.23;;;25.50;42.10;;;;;;5100293;28;19915;-84
2022/06/15 08:20:13;;;;;;;2.78;1.20;;;24.20;45.70;;;;;;5098617;28;20028;-85
2022/06/15 08:22:42;;;;;;;1.70;1.08;;;23.50;47.50;;;;;;5099656;28;20042;-83
2022/06/15 08:25:13;;;;;;;4.25;1.45;;;23.30;47.70;;;;;;5081379;28;20481;-83
2022/06/15 08:27:41;;;;;;;1.17;1.00;;;22.80;48.40;;;;;;5059153;28;20036;-84
2022/06/15 08:30:10;;;;;;;4.70;1.60;;;;;;;;;;5059183;28;20048;-83
2022/06/15 08:32:38;;;;;;;3.97;1.38;;;22.60;49.20;;;;;;5056075;28;20036;-86
2022/06/15 08:35:05;;;;;;;3.53;1.42;;;21.50;51.90;;;;;;5058964;28;20107;-85
2022/06/15 08:37:31;;;;;;;;;;;21.00;53.40;;;;;;5058680;28;20060;-83
2022/06/15 08:39:57;;;;;;;5.80;1.30;;;21.40;53.30;;;;;;5062594;28;19916;-85
2022/06/15 08:42:46;;;;;;;7.25;1.60;;;21.80;53.20;;;;;;5055245;28;20033;-85
2022/06/15 08:45:44;;;;;;;4.68;1.50;;;22.80;52.70;;;;;;5055612;28;20049;-86
2022/06/15 08:48:26;;;;;;;3.97;1.20;;;25.60;48.70;;;;;;5031830;28;20109;-85
2022/06/15 08:51:16;;;;;;;2.80;1.17;;;27.50;44.60;;;;;;5055828;28;20445;-86
2022/06/15 08:53:44;;;;;;;7.15;1.38;;;29.30;41.90;;;;;;5047755;28;20055;-84
2022/06/15 08:56:48;;;;;;;2.38;0.70;;;28.70;40.10;;;;;;5060988;28;20035;-84
2022/06/15 08:59:38;;;;;;;2.45;1.13;;;27.40;42.20;;;;;;5074685;28;20784;-86
2022/06/15 09:02:37;;;;;;;4.65;1.38;;;25.80;42.90;;;;;;5087383;28;20072;-85
2022/06/15 09:05:35;;;;;;;6.45;1.23;;;24.40;45.50;;;;;;5079020;28;20501;-84
2022/06/15 09:08:01;;;;;;;5.90;1.15;;;23.70;46.60;;;;;;5080316;28;20060;-86
2022/06/15 09:10:36;;;;;;;1.60;0.95;;;22.90;48.30;;;;;;5079294;28;20068;-85
2022/06/15 09:13:08;;;;;;;4.72;1.48;;;23.80;48.40;;;;;;5099250;28;20032;-83
2022/06/15 09:16:08;;;;;;;4.25;1.27;;;25.80;46.00;;;;;;5085499;28;20016;-82
2022/06/15 09:18:47;;;;;;;5.88;1.67;;;;;;;;;;5102975;28;20015;-84
2022/06/15 09:21:19;;;;;;;2.50;1.23;;;;;;;;;;5097754;28;20504;-85
2022/06/15 09:23:51;;;;;;;3.28;1.10;;;28.40;43.30;;;;;;5097397;28;20016;-84
2022/06/15 09:26:30;;;;;;;3.45;1.00;;;32.10;36.80;;;;;;5097733;28;20086;-84
2022/06/15 09:29:16;;;;;;;4.43;1.30;;;31.10;36.60;;;;;;5105688;28;20009;-83
2022/06/15 09:31:54;;;;;;;6.10;1.30;;;29.80;37.60;;;;;;5103400;28;20394;-85
2022/06/15 09:34:26;;;;;;;6.22;1.58;;;;;;;;;;5100928;28;20047;-83
2022/06/15 09:36:56;;;;;;;4.80;1.92;;;28.20;39.60;;;;;;5079325;28;20108;-85
2022/06/15 09:39:24;;;;;;;6.85;1.90;;;25.70;43.30;;;;;;5079463;28;20394;-85
2022/06/15 09:42:06;;;;;;;10.57;4.38;;;24.40;45.70;;;;;;5096728;28;20035;-83
2022/06/15 09:44:53;;;;;;;5.03;1.30;;;23.60;47.60;;;;;;5079887;28;20034;-83
2022/06/15 09:47:24;;;;;;;;;;;23.00;48.90;;;;;;5096711;28;20099;-84
2022/06/15 09:50:21;;;;;;;5.43;1.95;;;22.70;48.70;;;;;;5095965;28;19990;-84
2022/06/15 09:53:16;;;;;;;3.85;1.35;;;22.70;50.10;;;;;;5075014;28;20648;-83
2022/06/15 09:55:51;;;;;;;2.63;2.15;;;23.00;49.40;;;;;;5074981;28;20056;-85
2022/06/15 09:58:21;;;;;;;3.67;2.05;;;22.90;50.00;;;;;;5076174;28;20024;-84
2022/06/15 10:00:49;;;;;;;3.88;1.65;;;23.70;49.30;;;;;;5075704;28;20134;-85
2022/06/15 10:03:34;;;;;;;7.32;1.65;;;24.20;48.40;;;;;;5072872;28;20470;-86
2022/06/15 10:06:37;;;;;;;1.35;1.10;;;24.20;47.70;;;;;;5076802;28;20077;-84
2022/06/15 10:09:06;;;;;;;1.23;1.00;;;23.50;47.20;;;;;;5037228;28;20021;-83
2022/06/15 10:11:35;;;;;;;3.42;1.67;;;22.40;49.00;;;;;;5058386;28;20033;-84
2022/06/15 10:14:20;;;;;;;5.75;2.30;;;;;;;;;;5077048;28;20512;-86
2022/06/15 10:17:18;;;;;;;2.63;1.42;;;;;;;;;;5060416;28;20013;-85
2022/06/15 10:19:46;;;;;;;6.93;2.15;;;;;;;;;;5054425;28;20033;-85
2022/06/15 10:22:20;;;;;;;4.70;1.60;;;;;;;;;;5062480;28;20080;-84
2022/06/15 10:24:49;;;;;;;2.58;1.60;;;;;;;;;;5078911;28;20137;-85
2022/06/15 10:27:23;;;;;;;6.10;2.00;;;21.80;51.70;;;;;;5065059;28;20021;-82
2022/06/15 10:30:19;;;;;;;6.15;1.63;;;21.50;53.10;;;;;;5077523;28;20024;-83
2022/06/15 10:32:59;;;;;;;8.23;1.55;;;21.90;52.60;;;;;;5054402;28;20052;-84
2022/06/15 10:35:29;;;;;;;5.82;1.65;;;22.00;52.90;;;;;;5061917;28;20025;-83
2022/06/15 10:37:59;;;;;;;3.72;1.58;;;22.20;51.60;;;;;;5041814;28;20025;-82
2022/06/15 10:40:36;;;;;;;3.53;1.42;;;22.20;52.30;;;;;;5081539;28;20042;-82
2022/06/15 10:43:14;;;;;;;;;;;22.40;51.70;;;;;;5079143;28;20032;-85
2022/06/15 10:45:57;;;;;;;5.57;1.90;;;22.70;51.40;;;;;;5045390;28;20045;-85
2022/06/15 10:48:33;;;;;;;4.63;1.75;;;22.80;50.10;;;;;;5075465;28;20020;-84
2022/06/15 10:51:09;;;;;;;4.32;2.05;;;22.60;50.40;;;;;;5064718;28;20032;-85
2022/06/15 10:54:09;;;;;;;4.35;1.30;;;22.30;51.20;;;;;;5045468;28;20052;-84
2022/06/15 11:02:38;;;;;;;1.55;1.00;;;22.50;49.30;;;;;;5059201;28;20048;-82
2022/06/15 11:05:10;;;;;;;6.25;2.20;;;22.30;49.70;;;;;;5042272;28;20500;-84
2022/06/15 11:08:11;;;;;;;6.47;1.90;;;22.10;50.50;;;;;;5056494;28;20025;-83
2022/06/15 11:10:46;;;;;;;6.28;2.00;;;22.20;50.60;;;;;;5055155;28;20041;-83
2022/06/15 11:13:33;;;;;;;6.18;1.85;;;22.30;50.60;;;;;;5038207;28;20055;-84
2022/06/15 11:19:14;;;;;;;5.47;1.90;;;21.80;51.50;;;;;;5046282;28;20514;-85
2022/06/15 11:22:01;;;;;;;4.10;1.95;;;21.60;52.80;;;;;;5038621;28;20033;-83
2022/06/15 11:24:56;;;;;;;5.50;1.88;;;21.60;52.90;;;;;;5059862;28;20449;-83
2022/06/15 11:27:33;;;;;;;3.95;1.38;;;21.60;52.60;;;;;;5047346;28;20040;-84
2022/06/15 11:30:32;;;;;;;3.42;1.15;;;21.70;52.30;;;;;;5064407;28;20202;-82
2022/06/15 11:33:19;;;;;;;8.38;1.70;;;21.50;52.20;;;;;;5056519;28;20108;-83
2022/06/15 11:36:06;;;;;;;5.03;2.45;;;21.20;52.90;;;;;;5065033;28;20086;-85
2022/06/15 11:38:38;;;;;;;4.13;1.55;;;20.90;53.90;;;;;;5063389;28;20402;-85
2022/06/15 11:41:24;;;;;;;7.05;2.08;;;20.60;54.70;;;;;;5064628;28;20028;-83
2022/06/15 11:43:52;;;;;;;4.93;2.38;;;20.50;55.30;;;;;;5064470;28;20035;-83
2022/06/15 11:46:17;;;;;;;;;;;20.40;55.80;;;;;;5064122;28;20069;-83
2022/06/15 11:49:17;;;;;;;3.33;1.60;;;20.40;55.30;;;;;;5060224;28;20300;-86
2022/06/15 11:52:20;;;;;;;3.67;1.80;;;20.30;56.30;;;;;;5045488;28;20033;-86
2022/06/15 11:54:58;;;;;;;6.13;1.90;;;20.40;56.40;;;;;;5079727;28;20068;-85
2022/06/15 11:58:12;;;;;;;2.28;1.77;;;20.40;56.80;;;;;;5062822;28;20028;-86
2022/06/15 12:00:59;;;;;;;6.35;2.00;;;20.40;56.10;;;;;;5059253;28;20029;-85
2022/06/15 12:03:31;;;;;;;;;;;20.30;57.10;;;;;;5081263;28;20367;-85
2022/06/15 12:05:59;;;;;;;7.68;1.73;;;20.30;56.90;;;;;;5080166;28;19916;-85
2022/06/15 12:08:34;;;;;;;4.80;2.33;;;20.30;56.70;;;;;;5081471;28;20024;-84
2022/06/15 12:14:34;;;;;;;4.88;2.70;;;20.50;56.50;;;;;;5068438;28;20487;-83
2022/06/15 12:17:56;;;;;;;9.73;2.40;;;20.50;57.00;;;;;;5072338;28;20113;-85
2022/06/15 12:21:00;;;;;;;8.02;2.15;;;20.50;56.60;;;;;;4968504;28;20026;-83
2022/06/15 12:23:38;;;;;;;7.28;2.30;;;20.60;57.60;;;;;;4999015;28;20904;-85
2022/06/15 12:26:23;;;;;;;2.90;1.83;;;20.80;57.00;;;;;;5004503;28;20033;-85
2022/06/15 12:29:28;;;;;;;5.72;1.77;;;20.90;56.30;;;;;;4963713;28;20094;-83
2022/06/15 12:32:34;;;;;;;6.03;1.60;;;20.70;56.20;;;;;;4914692;29;20043;-86
2022/06/15 12:35:24;;;;;;;5.05;2.15;;;20.80;56.00;;;;;;4971031;28;20533;-86
2022/06/15 12:37:56;;;;;;;6.18;3.25;;;21.00;55.70;;;;;;4978914;28;20023;-83
2022/06/15 12:40:31;;;;;;;4.90;2.50;;;21.10;56.10;;;;;;4970575;28;20562;-85
2022/06/15 12:43:10;;;;;;;9.65;3.75;;;21.10;56.00;;;;;;4973155;28;20127;-84
2022/06/15 12:45:40;;;;;;;5.55;2.22;;;20.90;56.90;;;;;;4966441;28;20038;-84
2022/06/15 12:48:22;;;;;;;5.10;2.40;;;20.80;56.90;;;;;;4962466;28;20093;-83
2022/06/15 12:51:30;;;;;;;5.63;2.42;;;20.70;57.30;;;;;;4976489;28;20050;-85
2022/06/15 12:54:10;;;;;;;10.85;2.63;;;20.80;57.10;;;;;;4988167;28;20041;-85
2022/06/15 12:57:06;;;;;;;5.47;2.00;;;20.80;57.00;;;;;;5037633;28;20019;-84
2022/06/15 12:59:37;;;;;;;9.60;2.57;;;20.70;57.00;;;;;;5022920;28;20048;-85
2022/06/15 13:02:59;;;;;;;8.23;1.95;;;21.00;57.50;;;;;;5036831;28;20170;-85
2022/06/15 13:05:32;;;;;;;5.15;1.88;;;21.40;56.90;;;;;;4990046;28;20074;-84
2022/06/15 13:08:22;;;;;;;6.18;2.50;;;21.50;55.80;;;;;;5074621;28;20025;-87
2022/06/15 13:10:54;;;;;;;4.97;2.30;;;21.40;56.20;;;;;;5078115;28;20115;-85
2022/06/15 13:13:33;;;;;;;8.35;2.47;;;21.40;56.10;;;;;;5079188;28;20032;-86
2022/06/15 13:16:22;;;;;;;11.00;3.63;;;21.40;56.90;;;;;;5079042;28;20390;-86
2022/06/15 13:18:51;;;;;;;7.22;3.10;;;21.50;56.60;;;;;;5067647;28;20078;-84
2022/06/15 13:21:26;;;;;;;4.43;2.53;;;21.50;56.10;;;;;;5080596;28;20031;-84
2022/06/15 13:23:57;;;;;;;5.78;2.10;;;21.40;56.50;;;;;;5086377;28;20420;-84
2022/06/15 13:26:45;;;;;;;3.30;2.00;;;21.50;56.60;;;;;;5088371;28;20020;-83
2022/06/15 13:29:10;;;;;;;6.65;2.35;;;21.50;56.10;;;;;;5068941;28;20035;-86
2022/06/15 13:31:47;;;;;;;7.90;1.95;;;21.50;56.10;;;;;;5079623;28;20096;-84
2022/06/15 13:34:37;;;;;;;7.13;2.42;;;21.50;56.00;;;;;;5066591;28;20035;-84
2022/06/15 13:37:15;;;;;;;4.15;1.80;;;21.50;56.00;;;;;;5049414;28;20028;-85
2022/06/15 13:39:55;;;;;;;7.10;1.63;;;22.40;55.50;;;;;;5077249;28;20103;-85
2022/06/15 13:42:22;;;;;;;6.70;1.95;;;23.90;52.80;;;;;;5074152;28;20012;-84
2022/06/15 13:44:54;;;;;;;7.88;1.70;;;24.90;50.40;;;;;;5074506;28;20009;-84
2022/06/15 13:47:24;;;;;;;6.82;2.20;;;25.40;49.10;;;;;;5080337;28;20054;-82
2022/06/15 13:49:56;;;;;;;7.20;3.00;;;25.30;48.70;;;;;;5082630;28;20052;-82